Portada
METAR-TAF:

METAR-TAF

Aeropuertos :

Teherán, Irán

Aeropuerto Internacional de Mehrabad

latitud: 35-41N, longitud: 051-21E, altitud: 1204 m

Observación

El informe se hizo hace 34 minutos, a las 09:00 UTC
Viento 12 kt del oeste
Temperatura 13°C
Humedad 30%
Presión 1016 hPa
Visibilidad: 8000 m
Escasas nubes a una altura de 3500 ft

METAR: OIII 200900Z 26012KT 8000 FEW035 13/M04 Q1015 A3000 NOSIG

Hora: 13:04 (09:34 UTC)

Pronóstico

El informe se hizo hace 4 horas y 4 minutos, a las 05:30 UTC
Pronóstico válido del 20 a las 06 UTC al 21 a las 12 UTC
Viento 8 kt del norte-noroeste
Visibilidad 10 km o más
sin nubes por debajo de 1500 m y sin presencia de cumulonimbus.
Temporalmente
del 21 a las 06 UTC al 21 a las 12 UTC
Escasas nubes a una altura de 3500 ft, Cumulus congestus.
Nubes dispersas a una altura de 4000 ft
Cielo nuboso a una altura de 10000 ft

TAF: OIII 200530Z 2006/2112 33004MPS CAVOK TEMPO 2106/2112 FEW035TCU SCT040 BKN100

Observaciones y pronósticos meteorológicos de más de 4000 aeropuertos (mensajes METAR y TAF).

Los puntos amarillos y rojos representan las estaciones disponibles.

Ponga el ratón en el punto deseado para ver el nombre de la estación.

Haga clic para ver las observaciones y los pronósticos meteorológicos.

Para cambiar el mapa : haga clic en los botones verdes con una cruz de color negro para hacer un zoom, en el botón verde con un guión para alejar o en las flechas verdes para mapas adyacentes.


METAR-TAF: